SOHO CELIAS Proton Monitor
Solar Wind Parameters for Carrington Rotation 2200 (hour averages)


Listed Parameters:

Measurement time (Year, Month, Day of Month, Day of Year, Hour, Minute, Second)
Proton speed [km/sec]
Proton density [protons per cubic centimeter]
Most probable proton thermal speed [km/sec]
Arrival direction [degrees from north-south, with + meaning FROM the south).
(SPEED=-1 means NOT AVAILABLE)

SOHO spacecraft coordinates: based on SOHO PRE orbit files
GSE X, Y, Z [Earth Radii] 1 RE == 6378 km
Heliocentric Range [106 km],
Heliographic Latitude and Longitude [deg].

FORMAT=(1X,I2,1X,I3,1X,I2,1X,I2,1X,I2,F7.1,3F7.2,3X,3F7.1,F7.1,F7.2,F8.2)



                              CELIAS/MTOF/PM DATA                      SOHO ORBIT DATA              
 InSitu_Start__Time       [km/s]  [cm-3] [km/s]  [deg]      [Re]   [Re]   [Re]  [Mkm]  [deg]  [deg]
 YY MON DY DOY:HH:MM:SS   SPEED     Np     Vth    N/S      GSE_X  GSE_Y  GSE_Z  RANGE  HGLAT  HGLONG
 18 JAN 27  27:07:00:00     398    3.5      33    0.1      195.0  -56.2   11.8  146.1   -5.6   359.8
 18 JAN 27  27:08:00:00     403    3.4      34    0.1      195.0  -56.1   11.8  146.1   -5.6   359.3
 18 JAN 27  27:09:00:00     406    3.3      35    0.6      195.0  -55.9   11.9  146.1   -5.6   358.7
 18 JAN 27  27:10:00:00     408    3.4      36    0.4      195.0  -55.8   11.9  146.1   -5.7   358.2
 18 JAN 27  27:11:00:00     416    3.0      37    1.1      194.9  -55.7   11.9  146.1   -5.7   357.6
 18 JAN 27  27:12:00:00     413    3.1      37    0.9      194.9  -55.5   11.9  146.1   -5.7   357.1
 18 JAN 27  27:13:00:00     413    3.1      36    1.3      194.9  -55.4   11.9  146.1   -5.7   356.6
 18 JAN 27  27:14:00:00     406    3.2      35    1.0      194.9  -55.3   11.9  146.1   -5.7   356.0
 18 JAN 27  27:15:00:00     379    4.0      26    0.4      194.9  -55.1   12.0  146.1   -5.7   355.5
 18 JAN 27  27:16:00:00     369    4.2      24    0.3      194.9  -55.0   12.0  146.1   -5.7   354.9
 18 JAN 27  27:17:00:00     362    4.5      22    0.2      194.8  -54.9   12.0  146.1   -5.7   354.4
 18 JAN 27  27:18:00:00     356    5.0      21   -0.4      194.8  -54.7   12.0  146.1   -5.7   353.8
 18 JAN 27  27:19:00:00     356    5.1      21   -0.1      194.8  -54.6   12.0  146.1   -5.7   353.2
 18 JAN 27  27:20:00:00     352    3.3      23    0.2      194.8  -54.5   12.0  146.1   -5.7   352.7
 18 JAN 27  27:21:00:00     354    4.1      21   -0.5      194.8  -54.3   12.1  146.1   -5.7   352.1
 18 JAN 27  27:22:00:00     353    4.3      21   -1.3      194.8  -54.2   12.1  146.1   -5.7   351.6
 18 JAN 27  27:23:00:00     354    5.1      21   -2.1      194.7  -54.1   12.1  146.1   -5.7   351.1
 18 JAN 28  28:00:00:00     356    5.6      21   -2.5      194.7  -53.9   12.1  146.1   -5.7   350.5
 18 JAN 28  28:01:00:00     355    5.7      21   -2.2      194.7  -53.8   12.1  146.1   -5.7   350.0
 18 JAN 28  28:02:00:00     353    5.3      21   -2.2      194.7  -53.7   12.1  146.1   -5.7   349.4
 18 JAN 28  28:03:00:00     354    5.6      21   -3.6      194.7  -53.5   12.2  146.1   -5.7   348.9
 18 JAN 28  28:04:00:00     355    5.5      23   -5.0      194.7  -53.4   12.2  146.1   -5.7   348.3
 18 JAN 28  28:05:00:00     354    6.0      24   -5.7      194.6  -53.3   12.2  146.1   -5.7   347.8
 18 JAN 28  28:06:00:00     346    6.2      25   -5.6      194.6  -53.1   12.2  146.1   -5.7   347.2
 18 JAN 28  28:07:00:00     345    5.2      26   -4.5      194.6  -53.0   12.2  146.1   -5.7   346.6
 18 JAN 28  28:08:00:00     341    5.0      26   -4.1      194.6  -52.9   12.2  146.1   -5.7   346.1
 18 JAN 28  28:09:00:00     342    4.8      27   -3.5      194.6  -52.7   12.3  146.1   -5.7   345.6
 18 JAN 28  28:10:00:00     347    4.5      27   -3.8      194.6  -52.6   12.3  146.1   -5.7   345.0
 18 JAN 28  28:11:00:00     345    4.9      27   -2.6      194.6  -52.5   12.3  146.1   -5.7   344.5
 18 JAN 28  28:12:00:00     351    4.2      27   -1.8      194.5  -52.3   12.3  146.1   -5.7   343.9
 18 JAN 28  28:13:00:00     353    3.8      27   -1.9      194.5  -52.2   12.3  146.1   -5.7   343.4
 18 JAN 28  28:14:00:00     351    3.1      28   -1.5      194.5  -52.1   12.3  146.1   -5.7   342.8
 18 JAN 28  28:15:00:00     349    3.6      27   -2.3      194.5  -51.9   12.3  146.1   -5.7   342.3
 18 JAN 28  28:16:00:00     345    3.5      27   -2.6      194.5  -51.8   12.4  146.1   -5.7   341.7
 18 JAN 28  28:17:00:00     337    4.0      26   -2.8      194.5  -51.7   12.4  146.1   -5.7   341.2
 18 JAN 28  28:18:00:00     331    5.0      24   -4.2      194.5  -51.5   12.4  146.1   -5.7   340.6
 18 JAN 28  28:19:00:00     342    4.8      25   -5.4      194.4  -51.4   12.4  146.1   -5.7   340.1
 18 JAN 28  28:20:00:00     342    3.2      26   -4.0      194.4  -51.3   12.4  146.1   -5.7   339.5
 18 JAN 28  28:21:00:00     336    4.1      24   -4.8      194.4  -51.1   12.4  146.1   -5.7   339.0
 18 JAN 28  28:22:00:00     333    4.7      24   -4.9      194.4  -51.0   12.5  146.1   -5.8   338.4
 18 JAN 28  28:23:00:00     330    4.0      23   -4.9      194.4  -50.9   12.5  146.1   -5.8   337.9
 18 JAN 29  29:00:00:00     322    4.6      22   -3.1      194.4  -50.7   12.5  146.1   -5.8   337.4
 18 JAN 29  29:01:00:00     312    6.9      20   -4.0      194.4  -50.6   12.5  146.1   -5.8   336.8
 18 JAN 29  29:02:00:00     315    7.3      20   -4.3      194.3  -50.5   12.5  146.1   -5.8   336.2
 18 JAN 29  29:03:00:00     309    6.7      20   -3.3      194.3  -50.3   12.5  146.1   -5.8   335.7
 18 JAN 29  29:04:00:00     310    7.7      20   -3.6      194.3  -50.2   12.6  146.1   -5.8   335.1
 18 JAN 29  29:05:00:00     315    7.3      21   -3.0      194.3  -50.0   12.6  146.1   -5.8   334.6
 18 JAN 29  29:06:00:00     322    5.8      22   -1.7      194.3  -49.9   12.6  146.1   -5.8   334.0
 18 JAN 29  29:07:00:00     328    6.3      24   -0.4      194.3  -49.8   12.6  146.1   -5.8   333.5
 18 JAN 29  29:08:00:00     334    5.3      24    0.9      194.3  -49.6   12.6  146.1   -5.8   332.9
 18 JAN 29  29:09:00:00     333    4.8      24   -0.3      194.2  -49.5   12.6  146.1   -5.8   332.4
 18 JAN 29  29:10:00:00     323    5.5      23   -0.4      194.2  -49.4   12.6  146.1   -5.8   331.9
 18 JAN 29  29:11:00:00     321    6.7      22   -1.4      194.2  -49.2   12.7  146.1   -5.8   331.3
 18 JAN 29  29:12:00:00     331    4.6      24   -2.2      194.2  -49.1   12.7  146.1   -5.8   330.8
 18 JAN 29  29:13:00:00     328    7.4      23   -4.8      194.2  -49.0   12.7  146.1   -5.8   330.2
 18 JAN 29  29:14:00:00     322    7.4      23   -2.6      194.2  -48.8   12.7  146.1   -5.8   329.6
 18 JAN 29  29:15:00:00     308    5.3      20   -1.7      194.2  -48.7   12.7  146.1   -5.8   329.1
 18 JAN 29  29:16:00:00     298    4.1      19   -0.9      194.2  -48.5   12.7  146.1   -5.8   328.5
 18 JAN 29  29:17:00:00     310    5.0      20   -0.7      194.2  -48.4   12.8  146.1   -5.8   328.0
 18 JAN 29  29:18:00:00     306    4.9      19   -0.5      194.1  -48.3   12.8  146.1   -5.8   327.4
 18 JAN 29  29:19:00:00     306    5.4      19   -0.9      194.1  -48.1   12.8  146.1   -5.8   326.9
 18 JAN 29  29:20:00:00     306    6.9      19   -3.5      194.1  -48.0   12.8  146.1   -5.8   326.4
 18 JAN 29  29:21:00:00     313    7.0      21   -3.6      194.1  -47.9   12.8  146.1   -5.8   325.8
 18 JAN 29  29:22:00:00     305    7.3      19   -4.1      194.1  -47.7   12.8  146.1   -5.8   325.3
 18 JAN 29  29:23:00:00     309    5.4      20   -2.7      194.1  -47.6   12.8  146.1   -5.8   324.7
 18 JAN 30  30:00:00:00     318    8.2      21   -3.1      194.1  -47.4   12.9  146.1   -5.8   324.2
 18 JAN 30  30:01:00:00     320    7.4      21   -4.0      194.1  -47.3   12.9  146.1   -5.8   323.6
 18 JAN 30  30:02:00:00     319    6.3      21   -2.3      194.0  -47.2   12.9  146.1   -5.8   323.0
 18 JAN 30  30:03:00:00     316    8.5      20   -5.0      194.0  -47.0   12.9  146.1   -5.8   322.5
 18 JAN 30  30:04:00:00     312    6.0      20   -2.8      194.0  -46.9   12.9  146.1   -5.8   321.9
 18 JAN 30  30:05:00:00     314    7.8      21   -3.8      194.0  -46.7   12.9  146.1   -5.8   321.4
 18 JAN 30  30:06:00:00     310    5.4      20   -0.8      194.0  -46.6   12.9  146.1   -5.8   320.9
 18 JAN 30  30:07:00:00     308    4.4      20   -0.6      194.0  -46.5   13.0  146.1   -5.8   320.3
 18 JAN 30  30:08:00:00     297    5.3      19   -1.5      194.0  -46.3   13.0  146.1   -5.8   319.8
 18 JAN 30  30:09:00:00     299    5.4      19   -1.2      194.0  -46.2   13.0  146.1   -5.8   319.2
 18 JAN 30  30:10:00:00     307    5.7      20   -1.2      194.0  -46.1   13.0  146.1   -5.8   318.7
 18 JAN 30  30:11:00:00     304    5.6      19   -1.3      194.0  -45.9   13.0  146.1   -5.9   318.1
 18 JAN 30  30:12:00:00     302    3.9      19   -0.2      193.9  -45.8   13.0  146.1   -5.9   317.6
 18 JAN 30  30:13:00:00     308    3.3      20    0.5      193.9  -45.6   13.0  146.1   -5.9   317.0
 18 JAN 30  30:14:00:00     303    3.0      19    0.4      193.9  -45.5   13.1  146.1   -5.9   316.4
 18 JAN 30  30:15:00:00     300    3.2      19    0.9      193.9  -45.4   13.1  146.1   -5.9   315.9
 18 JAN 30  30:16:00:00     300    3.3      19    0.3      193.9  -45.2   13.1  146.1   -5.9   315.4
 18 JAN 30  30:17:00:00     292    3.8      19    0.0      193.9  -45.1   13.1  146.1   -5.9   314.8
 18 JAN 30  30:18:00:00     290    4.1      19   -0.7      193.9  -44.9   13.1  146.1   -5.9   314.3
 18 JAN 30  30:19:00:00     292    4.0      19   -0.3      193.9  -44.8   13.1  146.1   -5.9   313.8
 18 JAN 30  30:20:00:00     289    4.5      19    0.9      193.9  -44.7   13.1  146.1   -5.9   313.2
 18 JAN 30  30:21:00:00     291    4.8      19    0.3      193.9  -44.5   13.2  146.1   -5.9   312.6
 18 JAN 30  30:22:00:00     291    5.2      19    0.3      193.9  -44.4   13.2  146.1   -5.9   312.1
 18 JAN 30  30:23:00:00     294    5.0      18    0.2      193.8  -44.2   13.2  146.1   -5.9   311.5
 18 JAN 31  31:00:00:00     290    4.8      19   -0.1      193.8  -44.1   13.2  146.1   -5.9   311.0
 18 JAN 31  31:01:00:00     292    4.3      19    1.3      193.8  -43.9   13.2  146.1   -5.9   310.4
 18 JAN 31  31:02:00:00     293    4.7      19    0.1      193.8  -43.8   13.2  146.1   -5.9   309.9
 18 JAN 31  31:03:00:00     292    4.2      19   -0.2      193.8  -43.7   13.2  146.1   -5.9   309.3
 18 JAN 31  31:04:00:00     295    4.2      19    0.3      193.8  -43.5   13.3  146.1   -5.9   308.8
 18 JAN 31  31:05:00:00     305    4.6      19    0.0      193.8  -43.4   13.3  146.1   -5.9   308.3
 18 JAN 31  31:06:00:00     313    5.3      20   -2.0      193.8  -43.2   13.3  146.1   -6.0   307.7
 18 JAN 31  31:07:00:00     311    7.5      20   -3.9      193.8  -43.1   13.3  146.1   -6.0   307.2
 18 JAN 31  31:08:00:00     323   10.5      19   -7.2      193.8  -43.0   13.3  146.1   -6.0   306.6
 18 JAN 31  31:09:00:00     333    5.9      21   -5.6      193.8  -42.8   13.3  146.2   -6.0   306.0
 18 JAN 31  31:10:00:00     332    5.3      23   -4.3      193.8  -42.7   13.3  146.2   -6.0   305.5
 18 JAN 31  31:11:00:00     338    3.5      24   -1.0      193.7  -42.5   13.3  146.2   -6.0   304.9
 18 JAN 31  31:12:00:00     344    4.9      25    0.4      193.7  -42.4   13.4  146.2   -6.0   304.4
 18 JAN 31  31:13:00:00     352    6.0      29    2.7      193.7  -42.2   13.4  146.2   -6.0   303.8
 18 JAN 31  31:14:00:00     343    6.0      26    4.2      193.7  -42.1   13.4  146.2   -6.0   303.3
 18 JAN 31  31:15:00:00     342    5.2      26    3.4      193.7  -42.0   13.4  146.2   -6.0   302.8
 18 JAN 31  31:16:00:00     345    6.6      26    0.3      193.7  -41.8   13.4  146.2   -6.0   302.2
 18 JAN 31  31:17:00:00     343    5.2      24   -0.9      193.7  -41.7   13.4  146.2   -6.0   301.7
 18 JAN 31  31:18:00:00     349    5.9      23   -0.4      193.7  -41.5   13.4  146.2   -6.0   301.1
 18 JAN 31  31:19:00:00     378    6.5      30    2.4      193.7  -41.4   13.5  146.2   -6.0   300.6
 18 JAN 31  31:20:00:00     382    4.9      32    0.8      193.7  -41.2   13.5  146.2   -6.0   300.0
 18 JAN 31  31:21:00:00     393    4.9      34    0.9      193.7  -41.1   13.5  146.2   -6.0   299.4
 18 JAN 31  31:22:00:00     402    4.9      37    1.3      193.7  -41.0   13.5  146.2   -6.0   298.9
 18 JAN 31  31:23:00:00     399    4.7      36    1.0      193.7  -40.8   13.5  146.2   -6.0   298.3
 18 FEB  1  32:00:00:00     397    4.6      32    1.2      193.7  -40.7   13.5  146.2   -6.0   297.8
 18 FEB  1  32:01:00:00     393    4.5      30    1.3      193.7  -40.5   13.5  146.2   -6.0   297.3
 18 FEB  1  32:02:00:00     384    4.6      27    1.5      193.7  -40.4   13.5  146.2   -6.0   296.7
 18 FEB  1  32:03:00:00     384    4.7      27    1.6      193.6  -40.2   13.6  146.2   -6.0   296.2
 18 FEB  1  32:04:00:00     378    4.5      26    1.0      193.6  -40.1   13.6  146.2   -6.0   295.6
 18 FEB  1  32:05:00:00     383    3.8      28    0.9      193.6  -40.0   13.6  146.2   -6.0   295.1
 18 FEB  1  32:06:00:00     373    4.5      25    1.4      193.6  -39.8   13.6  146.2   -6.0   294.5
 18 FEB  1  32:07:00:00     367    4.6      24    1.0      193.6  -39.7   13.6  146.2   -6.0   294.0
 18 FEB  1  32:08:00:00     370    4.2      24   -0.3      193.6  -39.5   13.6  146.2   -6.0   293.4
 18 FEB  1  32:09:00:00     361    4.4      22    0.7      193.6  -39.4   13.6  146.2   -6.0   292.8
 18 FEB  1  32:10:00:00     360    4.2      22    0.6      193.6  -39.2   13.6  146.2   -6.0   292.3
 18 FEB  1  32:11:00:00     366    4.3      25    0.2      193.6  -39.1   13.7  146.2   -6.0   291.8
 18 FEB  1  32:12:00:00     382    4.1      31    0.3      193.6  -38.9   13.7  146.2   -6.0   291.2
 18 FEB  1  32:13:00:00     382    4.5      30    0.9      193.6  -38.8   13.7  146.2   -6.0   290.7
 18 FEB  1  32:14:00:00     385    4.9      29    1.7      193.6  -38.7   13.7  146.2   -6.0   290.1
 18 FEB  1  32:15:00:00     378    5.2      27    1.9      193.6  -38.5   13.7  146.2   -6.0   289.6
 18 FEB  1  32:16:00:00     371    5.1      26    2.0      193.6  -38.4   13.7  146.2   -6.0   289.0
 18 FEB  1  32:17:00:00     366    4.8      25    1.3      193.6  -38.2   13.7  146.2   -6.0   288.5
 18 FEB  1  32:18:00:00     369    5.3      25    2.6      193.6  -38.1   13.7  146.2   -6.0   287.9
 18 FEB  1  32:19:00:00     362    5.0      23    1.6      193.6  -37.9   13.8  146.2   -6.0   287.4
 18 FEB  1  32:20:00:00     357    4.5      21    1.4      193.6  -37.8   13.8  146.2   -6.0   286.8
 18 FEB  1  32:21:00:00     354    3.7      22    1.1      193.6  -37.6   13.8  146.2   -6.1   286.2
 18 FEB  1  32:22:00:00     353    3.7      21    1.3      193.6  -37.5   13.8  146.2   -6.1   285.7
 18 FEB  1  32:23:00:00     350    3.5      20    1.0      193.6  -37.3   13.8  146.2   -6.1   285.2
 18 FEB  2  33:00:00:00     349    2.8      21    1.2      193.6  -37.2   13.8  146.2   -6.1   284.6
 18 FEB  2  33:01:00:00     350    2.7      21    2.0      193.5  -37.0   13.8  146.2   -6.1   284.1
 18 FEB  2  33:02:00:00     348    3.4      20    0.2      193.5  -36.9   13.8  146.2   -6.1   283.6
 18 FEB  2  33:03:00:00     348    3.4      20    1.4      193.5  -36.7   13.9  146.2   -6.1   283.0
 18 FEB  2  33:04:00:00     347    2.7      20    1.2      193.5  -36.6   13.9  146.2   -6.1   282.4
 18 FEB  2  33:05:00:00     346    2.7      20    0.5      193.5  -36.5   13.9  146.2   -6.1   281.9
 18 FEB  2  33:06:00:00     348    2.5      24    1.1      193.5  -36.3   13.9  146.2   -6.1   281.3
 18 FEB  2  33:07:00:00     346    2.1      25    0.5      193.5  -36.2   13.9  146.2   -6.1   280.8
 18 FEB  2  33:08:00:00     351    2.7      25    0.6      193.5  -36.0   13.9  146.2   -6.1   280.2
 18 FEB  2  33:09:00:00     354    2.8      25   -0.6      193.5  -35.9   13.9  146.2   -6.1   279.7
 18 FEB  2  33:10:00:00     353    3.0      24   -1.1      193.5  -35.7   13.9  146.2   -6.1   279.1
 18 FEB  2  33:11:00:00     347    2.2      25   -1.1      193.5  -35.6   13.9  146.2   -6.1   278.6
 18 FEB  2  33:12:00:00     342    1.9      26   -1.8      193.5  -35.4   14.0  146.2   -6.1   278.1
 18 FEB  2  33:13:00:00     338    2.1      25   -1.9      193.5  -35.3   14.0  146.2   -6.1   277.5
 18 FEB  2  33:14:00:00     336    2.2      24   -3.8      193.5  -35.1   14.0  146.2   -6.1   277.0
 18 FEB  2  33:15:00:00     332    2.2      23   -3.3      193.5  -35.0   14.0  146.2   -6.1   276.4
 18 FEB  2  33:16:00:00     328    2.6      24   -2.0      193.5  -34.8   14.0  146.2   -6.1   275.8
 18 FEB  2  33:17:00:00     317    4.0      21   -2.9      193.5  -34.7   14.0  146.2   -6.1   275.3
 18 FEB  2  33:18:00:00     303    4.8      19   -3.0      193.5  -34.5   14.0  146.2   -6.1   274.7
 18 FEB  2  33:19:00:00     304    5.6      19   -3.3      193.5  -34.4   14.0  146.2   -6.1   274.2
 18 FEB  2  33:20:00:00     297    5.1      19   -2.8      193.5  -34.2   14.0  146.2   -6.1   273.6
 18 FEB  2  33:21:00:00     296    4.9      19   -2.6      193.5  -34.1   14.1  146.2   -6.1   273.1
 18 FEB  2  33:22:00:00     295    4.5      19   -2.5      193.5  -33.9   14.1  146.2   -6.1   272.6
 18 FEB  2  33:23:00:00     289    4.1      18   -1.9      193.5  -33.8   14.1  146.2   -6.1   272.0
 18 FEB  3  34:00:00:00     289    3.9      18   -2.0      193.5  -33.6   14.1  146.2   -6.1   271.5
 18 FEB  3  34:01:00:00     290    3.5      19   -1.4      193.5  -33.5   14.1  146.2   -6.1   270.9
 18 FEB  3  34:02:00:00     295    3.8      18   -1.0      193.5  -33.3   14.1  146.2   -6.1   270.4
 18 FEB  3  34:03:00:00     299    3.5      19   -1.4      193.5  -33.2   14.1  146.2   -6.1   269.8
 18 FEB  3  34:04:00:00     306    3.3      20   -2.0      193.5  -33.0   14.1  146.2   -6.1   269.2
 18 FEB  3  34:05:00:00     300    3.9      19   -1.1      193.5  -32.9   14.1  146.2   -6.1   268.7
 18 FEB  3  34:06:00:00     300    4.1      19   -1.3      193.5  -32.7   14.1  146.2   -6.1   268.1
 18 FEB  3  34:07:00:00     301    4.2      19   -1.6      193.5  -32.6   14.2  146.2   -6.1   267.6
 18 FEB  3  34:08:00:00     304    3.3      19   -0.5      193.5  -32.4   14.2  146.2   -6.1   267.1
 18 FEB  3  34:09:00:00     295    2.9      19   -0.9      193.5  -32.3   14.2  146.2   -6.1   266.5
 18 FEB  3  34:10:00:00     288    4.0      18   -1.7      193.5  -32.1   14.2  146.2   -6.1   266.0
 18 FEB  3  34:11:00:00     289    3.1      18   -1.1      193.5  -32.0   14.2  146.2   -6.1   265.4
 18 FEB  3  34:12:00:00     285    3.7      17   -1.4      193.5  -31.8   14.2  146.2   -6.1   264.9
 18 FEB  3  34:13:00:00     287    4.0      17   -2.1      193.5  -31.7   14.2  146.2   -6.1   264.3
 18 FEB  3  34:14:00:00     286    3.9      17   -1.4      193.5  -31.5   14.2  146.2   -6.2   263.8
 18 FEB  3  34:15:00:00     287    4.4      17   -1.6      193.5  -31.4   14.2  146.2   -6.2   263.2
 18 FEB  3  34:16:00:00     292    5.0      19   -2.9      193.5  -31.2   14.2  146.2   -6.2   262.6
 18 FEB  3  34:17:00:00     299    8.5      19   -4.5      193.5  -31.1   14.3  146.2   -6.2   262.1
 18 FEB  3  34:18:00:00     301    8.4      19   -4.7      193.5  -30.9   14.3  146.2   -6.2   261.6
 18 FEB  3  34:19:00:00     301    6.1      19   -3.5      193.5  -30.8   14.3  146.2   -6.2   261.0
 18 FEB  3  34:20:00:00     300    6.2      19   -3.7      193.5  -30.6   14.3  146.2   -6.2   260.5
 18 FEB  3  34:21:00:00     294    5.3      19   -2.7      193.5  -30.5   14.3  146.2   -6.2   260.0
 18 FEB  3  34:22:00:00     293    4.5      19   -1.7      193.5  -30.3   14.3  146.2   -6.2   259.4
 18 FEB  3  34:23:00:00     294    3.9      19   -1.7      193.5  -30.2   14.3  146.2   -6.2   258.8
 18 FEB  4  35:00:00:00     296    3.6      19   -2.2      193.5  -30.0   14.3  146.2   -6.2   258.3
 18 FEB  4  35:01:00:00     289    3.6      18   -1.2      193.5  -29.8   14.3  146.2   -6.2   257.7
 18 FEB  4  35:02:00:00     287    3.4      18   -0.6      193.5  -29.7   14.3  146.2   -6.2   257.2
 18 FEB  4  35:03:00:00     287    3.6      18   -0.3      193.5  -29.5   14.4  146.2   -6.2   256.6
 18 FEB  4  35:04:00:00     294    4.7      19   -1.5      193.5  -29.4   14.4  146.2   -6.2   256.1
 18 FEB  4  35:05:00:00     297    5.2      19   -2.5      193.5  -29.2   14.4  146.2   -6.2   255.5
 18 FEB  4  35:06:00:00     299    4.6      19   -1.8      193.5  -29.1   14.4  146.2   -6.2   255.0
 18 FEB  4  35:07:00:00     291    4.5      19   -1.8      193.5  -28.9   14.4  146.2   -6.2   254.5
 18 FEB  4  35:08:00:00     294    4.6      19   -2.9      193.5  -28.8   14.4  146.2   -6.2   253.9
 18 FEB  4  35:09:00:00     299    4.2      19   -1.6      193.5  -28.6   14.4  146.2   -6.2   253.4
 18 FEB  4  35:10:00:00     322    2.8      22   -1.9      193.5  -28.5   14.4  146.2   -6.2   252.8
 18 FEB  4  35:11:00:00     329    3.0      22   -2.2      193.5  -28.3   14.4  146.2   -6.2   252.2
 18 FEB  4  35:12:00:00     340    4.6      21   -2.3      193.5  -28.2   14.4  146.2   -6.2   251.7
 18 FEB  4  35:13:00:00     339    6.7      20   -3.8      193.5  -28.0   14.4  146.2   -6.2   251.1
 18 FEB  4  35:14:00:00     331    7.4      21   -4.4      193.5  -27.8   14.5  146.2   -6.2   250.6
 18 FEB  4  35:15:00:00     331    9.1      21   -4.7      193.5  -27.7   14.5  146.2   -6.2   250.0
 18 FEB  4  35:16:00:00     334    6.6      22   -4.3      193.5  -27.5   14.5  146.2   -6.2   249.5
 18 FEB  4  35:17:00:00     342    5.0      23   -1.4      193.5  -27.4   14.5  146.2   -6.2   249.0
 18 FEB  4  35:18:00:00     354    4.9      25   -1.1      193.5  -27.2   14.5  146.2   -6.2   248.4
 18 FEB  4  35:19:00:00     354    5.0      25   -1.3      193.5  -27.1   14.5  146.2   -6.2   247.9
 18 FEB  4  35:20:00:00     358    5.5      29   -0.6      193.5  -26.9   14.5  146.3   -6.2   247.3
 18 FEB  4  35:21:00:00     363    6.4      31   -0.3      193.5  -26.8   14.5  146.3   -6.2   246.8
 18 FEB  4  35:22:00:00     366    6.5      32   -0.4      193.5  -26.6   14.5  146.3   -6.2   246.2
 18 FEB  4  35:23:00:00     382    5.9      32    0.2      193.5  -26.4   14.5  146.3   -6.2   245.6
 18 FEB  5  36:00:00:00     375    6.9      30   -2.4      193.5  -26.3   14.5  146.3   -6.2   245.1
 18 FEB  5  36:01:00:00     376    6.3      31   -2.3      193.5  -26.1   14.5  146.3   -6.2   244.5
 18 FEB  5  36:02:00:00     371    7.4      27   -3.5      193.5  -26.0   14.6  146.3   -6.2   244.0
 18 FEB  5  36:03:00:00     362    6.5      26   -3.3      193.5  -25.8   14.6  146.3   -6.2   243.4
 18 FEB  5  36:04:00:00     367    4.1      29   -1.8      193.5  -25.7   14.6  146.3   -6.2   242.9
 18 FEB  5  36:05:00:00     381    4.3      30   -0.6      193.5  -25.5   14.6  146.3   -6.2   242.4
 18 FEB  5  36:06:00:00      -1   -1.0      -1   99.0      193.6  -25.4   14.6  146.3   -6.2   241.8
 18 FEB  5  36:07:00:00      -1   -1.0      -1   99.0      193.6  -25.2   14.6  146.3   -6.2   241.3
 18 FEB  5  36:08:00:00      -1   -1.0      -1   99.0      193.6  -25.0   14.6  146.3   -6.2   240.7
 18 FEB  5  36:09:00:00      -1   -1.0      -1   99.0      193.6  -24.9   14.6  146.3   -6.3   240.2
 18 FEB  5  36:10:00:00      -1   -1.0      -1   99.0      193.6  -24.7   14.6  146.3   -6.3   239.6
 18 FEB  5  36:11:00:00      -1   -1.0      -1   99.0      193.6  -24.6   14.6  146.3   -6.3   239.0
 18 FEB  5  36:12:00:00      -1   -1.0      -1   99.0      193.6  -24.4   14.6  146.3   -6.3   238.5
 18 FEB  5  36:13:00:00      -1   -1.0      -1   99.0      193.6  -24.2   14.6  146.3   -6.3   237.9
 18 FEB  5  36:14:00:00      -1   -1.0      -1   99.0      193.6  -24.1   14.7  146.3   -6.3   237.4
 18 FEB  5  36:15:00:00     357    4.3      24   -2.0      193.6  -23.9   14.7  146.3   -6.3   236.9
 18 FEB  5  36:16:00:00     356    4.4      22   -1.6      193.6  -23.8   14.7  146.3   -6.3   236.3
 18 FEB  5  36:17:00:00     363    4.9      22   -0.3      193.6  -23.6   14.7  146.3   -6.3   235.8
 18 FEB  5  36:18:00:00     356    4.9      21   -0.3      193.6  -23.5   14.7  146.3   -6.3   235.2
 18 FEB  5  36:19:00:00     359    4.1      22    0.1      193.6  -23.3   14.7  146.3   -6.3   234.7
 18 FEB  5  36:20:00:00     355    3.7      21    0.3      193.6  -23.1   14.7  146.3   -6.3   234.1
 18 FEB  5  36:21:00:00     358    3.1      22    0.5      193.6  -23.0   14.7  146.3   -6.3   233.6
 18 FEB  5  36:22:00:00     358    3.3      22    0.5      193.6  -22.8   14.7  146.3   -6.3   233.0
 18 FEB  5  36:23:00:00     361    3.3      23   -0.5      193.6  -22.7   14.7  146.3   -6.3   232.4
 18 FEB  6  37:00:00:00     372    3.4      25    0.1      193.6  -22.5   14.7  146.3   -6.3   231.9
 18 FEB  6  37:01:00:00     395    3.4      31    0.6      193.6  -22.3   14.7  146.3   -6.3   231.4
 18 FEB  6  37:02:00:00     383    4.2      27   -0.6      193.6  -22.2   14.7  146.3   -6.3   230.8
 18 FEB  6  37:03:00:00     378    4.9      26   -1.2      193.6  -22.0   14.7  146.3   -6.3   230.3
 18 FEB  6  37:04:00:00     368    4.9      23   -1.8      193.6  -21.9   14.8  146.3   -6.3   229.8
 18 FEB  6  37:05:00:00     371    4.4      24   -0.7      193.6  -21.7   14.8  146.3   -6.3   229.2
 18 FEB  6  37:06:00:00     386    3.8      28   -0.6      193.6  -21.6   14.8  146.3   -6.3   228.6
 18 FEB  6  37:07:00:00     377    4.1      26   -0.4      193.6  -21.4   14.8  146.3   -6.4   228.1
 18 FEB  6  37:08:00:00     371    4.8      24   -0.9      193.6  -21.2   14.8  146.3   -6.4   227.5
 18 FEB  6  37:09:00:00     376    4.3      26   -0.5      193.6  -21.1   14.8  146.3   -6.4   227.0
 18 FEB  6  37:10:00:00     389    3.3      29    0.2      193.7  -20.9   14.8  146.3   -6.4   226.4
 18 FEB  6  37:11:00:00     380    3.7      27   -0.5      193.7  -20.8   14.8  146.3   -6.4   225.9
 18 FEB  6  37:12:00:00     379    3.5      26    0.0      193.7  -20.6   14.8  146.3   -6.4   225.3
 18 FEB  6  37:13:00:00     379    3.5      27    0.1      193.7  -20.4   14.8  146.3   -6.4   224.8
 18 FEB  6  37:14:00:00     377    4.0      25   -0.7      193.7  -20.3   14.8  146.3   -6.4   224.3
 18 FEB  6  37:15:00:00     372    3.6      25   -0.5      193.7  -20.1   14.8  146.3   -6.4   223.7
 18 FEB  6  37:16:00:00     416    3.0      36   -0.7      193.7  -19.9   14.8  146.3   -6.4   223.2
 18 FEB  6  37:17:00:00     423    2.6      38    0.1      193.7  -19.8   14.8  146.3   -6.4   222.6
 18 FEB  6  37:18:00:00     417    2.4      36    0.1      193.7  -19.6   14.8  146.3   -6.4   222.0
 18 FEB  6  37:19:00:00     416    2.6      36    0.1      193.7  -19.5   14.8  146.3   -6.4   221.5
 18 FEB  6  37:20:00:00     401    3.0      33    0.3      193.7  -19.3   14.9  146.3   -6.4   220.9
 18 FEB  6  37:21:00:00     392    3.2      31    0.0      193.7  -19.1   14.9  146.3   -6.4   220.4
 18 FEB  6  37:22:00:00     378    3.1      27    0.3      193.7  -19.0   14.9  146.3   -6.4   219.8
 18 FEB  6  37:23:00:00     367    3.2      24    0.3      193.7  -18.8   14.9  146.3   -6.4   219.3
 18 FEB  7  38:00:00:00     362    3.3      23    0.7      193.7  -18.7   14.9  146.3   -6.4   218.8
 18 FEB  7  38:01:00:00     381    3.3      28    0.6      193.7  -18.5   14.9  146.3   -6.4   218.2
 18 FEB  7  38:02:00:00     382    3.3      29    0.6      193.7  -18.3   14.9  146.3   -6.4   217.7
 18 FEB  7  38:03:00:00     382    3.2      29    0.9      193.7  -18.2   14.9  146.3   -6.4   217.1
 18 FEB  7  38:04:00:00     377    3.3      27    0.7      193.7  -18.0   14.9  146.3   -6.4   216.6
 18 FEB  7  38:05:00:00     380    3.3      28    1.3      193.7  -17.9   14.9  146.3   -6.4   216.0
 18 FEB  7  38:06:00:00     383    4.0      28    1.8      193.7  -17.7   14.9  146.3   -6.4   215.4
 18 FEB  7  38:07:00:00     375    4.1      26    1.0      193.8  -17.5   14.9  146.3   -6.4   214.9
 18 FEB  7  38:08:00:00     383    4.0      28    0.9      193.8  -17.4   14.9  146.3   -6.4   214.3
 18 FEB  7  38:09:00:00     387    4.0      28    1.6      193.8  -17.2   14.9  146.3   -6.4   213.8
 18 FEB  7  38:10:00:00     371    4.2      24    0.7      193.8  -17.0   14.9  146.3   -6.4   213.3
 18 FEB  7  38:11:00:00     380    3.9      28    0.8      193.8  -16.9   14.9  146.3   -6.4   212.7
 18 FEB  7  38:12:00:00     378    4.3      27    0.5      193.8  -16.7   14.9  146.3   -6.4   212.2
 18 FEB  7  38:13:00:00     374    4.1      25    1.0      193.8  -16.5   14.9  146.3   -6.4   211.6
 18 FEB  7  38:14:00:00     376    3.7      25    1.3      193.8  -16.4   15.0  146.3   -6.4   211.1
 18 FEB  7  38:15:00:00     369    3.7      24    1.1      193.8  -16.2   15.0  146.3   -6.4   210.5
 18 FEB  7  38:16:00:00     369    3.7      23    1.0      193.8  -16.1   15.0  146.3   -6.4   210.0
 18 FEB  7  38:17:00:00     366    3.3      23    1.1      193.8  -15.9   15.0  146.3   -6.4   209.4
 18 FEB  7  38:18:00:00     366    3.1      23    1.3      193.8  -15.7   15.0  146.3   -6.4   208.8
 18 FEB  7  38:19:00:00     371    2.7      24    1.4      193.8  -15.6   15.0  146.3   -6.4   208.3
 18 FEB  7  38:20:00:00     376    2.4      27    1.9      193.8  -15.4   15.0  146.3   -6.4   207.8
 18 FEB  7  38:21:00:00     360    2.8      24    2.0      193.8  -15.2   15.0  146.3   -6.4   207.2
 18 FEB  7  38:22:00:00     354    2.7      23    2.0      193.8  -15.1   15.0  146.3   -6.4   206.7
 18 FEB  7  38:23:00:00     352    2.6      22    1.8      193.8  -14.9   15.0  146.3   -6.4   206.1
 18 FEB  8  39:00:00:00     350    2.6      22    1.7      193.8  -14.8   15.0  146.3   -6.4   205.6
 18 FEB  8  39:01:00:00     352    3.3      22    1.6      193.9  -14.6   15.0  146.3   -6.4   205.0
 18 FEB  8  39:02:00:00     359    5.5      22    1.4      193.9  -14.4   15.0  146.3   -6.4   204.5
 18 FEB  8  39:03:00:00     358    4.6      23    1.3      193.9  -14.3   15.0  146.3   -6.4   203.9
 18 FEB  8  39:04:00:00     353    4.8      24    1.7      193.9  -14.1   15.0  146.3   -6.4   203.4
 18 FEB  8  39:05:00:00     341    4.4      25    1.4      193.9  -13.9   15.0  146.3   -6.4   202.8
 18 FEB  8  39:06:00:00     341    4.4      24    1.8      193.9  -13.8   15.0  146.3   -6.5   202.3
 18 FEB  8  39:07:00:00     345    5.5      24    2.5      193.9  -13.6   15.0  146.3   -6.5   201.7
 18 FEB  8  39:08:00:00     353    6.9      24    3.2      193.9  -13.4   15.0  146.3   -6.5   201.2
 18 FEB  8  39:09:00:00     355    7.0      24    2.5      193.9  -13.3   15.0  146.3   -6.5   200.6
 18 FEB  8  39:10:00:00     357    7.4      23    3.3      193.9  -13.1   15.0  146.3   -6.5   200.1
 18 FEB  8  39:11:00:00     357    5.7      25    1.5      193.9  -12.9   15.0  146.3   -6.5   199.5
 18 FEB  8  39:12:00:00     357    4.8      26    0.8      193.9  -12.8   15.0  146.3   -6.5   199.0
 18 FEB  8  39:13:00:00     359    4.4      26    1.2      193.9  -12.6   15.1  146.3   -6.5   198.4
 18 FEB  8  39:14:00:00     355    3.0      28    0.3      193.9  -12.4   15.1  146.3   -6.5   197.9
 18 FEB  8  39:15:00:00     352    2.6      30    1.5      193.9  -12.3   15.1  146.3   -6.5   197.3
 18 FEB  8  39:16:00:00      -1   -1.0      -1   99.0      193.9  -12.1   15.1  146.3   -6.5   196.8
 18 FEB  8  39:17:00:00      -1   -1.0      -1   99.0      193.9  -11.9   15.1  146.3   -6.5   196.2
 18 FEB  8  39:18:00:00      -1   -1.0      -1   99.0      194.0  -11.8   15.1  146.3   -6.5   195.7
 18 FEB  8  39:19:00:00      -1   -1.0      -1   99.0      194.0  -11.6   15.1  146.3   -6.5   195.1
 18 FEB  8  39:20:00:00     350    3.1      29    2.5      194.0  -11.5   15.1  146.3   -6.5   194.6
 18 FEB  8  39:21:00:00     343    3.4      29    2.2      194.0  -11.3   15.1  146.4   -6.5   194.1
 18 FEB  8  39:22:00:00     338    3.1      28    1.4      194.0  -11.1   15.1  146.4   -6.5   193.5
 18 FEB  8  39:23:00:00      -1   -1.0      -1   99.0      194.0  -11.0   15.1  146.4   -6.5   193.0
 18 FEB  9  40:00:00:00      -1   -1.0      -1   99.0      194.0  -10.8   15.1  146.4   -6.5   192.4
 18 FEB  9  40:01:00:00      -1   -1.0      -1   99.0      194.0  -10.6   15.1  146.4   -6.5   191.8
 18 FEB  9  40:02:00:00      -1   -1.0      -1   99.0      194.0  -10.5   15.1  146.4   -6.5   191.3
 18 FEB  9  40:03:00:00      -1   -1.0      -1   99.0      194.0  -10.3   15.1  146.4   -6.5   190.7
 18 FEB  9  40:04:00:00     311    5.0      21   -0.1      194.0  -10.1   15.1  146.4   -6.5   190.2
 18 FEB  9  40:05:00:00     316    4.7      22    0.2      194.0  -10.0   15.1  146.4   -6.5   189.6
 18 FEB  9  40:06:00:00     308    4.4      20   -0.3      194.0   -9.8   15.1  146.4   -6.5   189.1
 18 FEB  9  40:07:00:00     305    4.3      19   -0.2      194.0   -9.6   15.1  146.4   -6.5   188.6
 18 FEB  9  40:08:00:00      -1   -1.0      -1   99.0      194.0   -9.5   15.1  146.4   -6.5   188.0
 18 FEB  9  40:09:00:00      -1   -1.0      -1   99.0      194.0   -9.3   15.1  146.4   -6.5   187.5
 18 FEB  9  40:10:00:00      -1   -1.0      -1   99.0      194.0   -9.1   15.1  146.4   -6.5   186.9
 18 FEB  9  40:11:00:00      -1   -1.0      -1   99.0      194.1   -9.0   15.1  146.4   -6.5   186.4
 18 FEB  9  40:12:00:00      -1   -1.0      -1   99.0      194.1   -8.8   15.1  146.4   -6.5   185.8
 18 FEB  9  40:13:00:00      -1   -1.0      -1   99.0      194.1   -8.6   15.1  146.4   -6.5   185.2
 18 FEB  9  40:14:00:00      -1   -1.0      -1   99.0      194.1   -8.5   15.1  146.4   -6.5   184.7
 18 FEB  9  40:15:00:00     301    3.6      19   -1.0      194.1   -8.3   15.1  146.4   -6.5   184.1
 18 FEB  9  40:16:00:00     304    3.6      19   -0.6      194.1   -8.1   15.1  146.4   -6.5   183.6
 18 FEB  9  40:17:00:00     299    3.5      19   -0.1      194.1   -8.0   15.1  146.4   -6.5   183.1
 18 FEB  9  40:18:00:00      -1   -1.0      -1   99.0      194.1   -7.8   15.1  146.4   -6.5   182.5
 18 FEB  9  40:19:00:00      -1   -1.0      -1   99.0      194.1   -7.6   15.1  146.4   -6.5   182.0
 18 FEB  9  40:20:00:00     310    4.1      20   -1.2      194.1   -7.4   15.1  146.4   -6.5   181.4
 18 FEB  9  40:21:00:00     303    3.8      19   -0.7      194.1   -7.3   15.1  146.4   -6.5   180.9
 18 FEB  9  40:22:00:00     305    4.0      19   -0.4      194.1   -7.1   15.1  146.4   -6.5   180.3
 18 FEB  9  40:23:00:00     305    4.4      19   -1.2      194.1   -6.9   15.1  146.4   -6.5   179.8
 18 FEB 10  41:00:00:00     314    6.2      21   -2.7      194.1   -6.8   15.1  146.4   -6.5   179.2
 18 FEB 10  41:01:00:00      -1   -1.0      -1   99.0      194.1   -6.6   15.1  146.4   -6.5   178.6
 18 FEB 10  41:02:00:00      -1   -1.0      -1   99.0      194.2   -6.4   15.1  146.4   -6.5   178.1
 18 FEB 10  41:03:00:00      -1   -1.0      -1   99.0      194.2   -6.3   15.2  146.4   -6.5   177.6
 18 FEB 10  41:04:00:00      -1   -1.0      -1   99.0      194.2   -6.1   15.2  146.4   -6.5   177.0
 18 FEB 10  41:05:00:00     309    4.7      20   -2.0      194.2   -5.9   15.2  146.4   -6.5   176.5
 18 FEB 10  41:06:00:00      -1   -1.0      -1   99.0      194.2   -5.8   15.2  146.4   -6.5   175.9
 18 FEB 10  41:07:00:00      -1   -1.0      -1   99.0      194.2   -5.6   15.2  146.4   -6.5   175.4
 18 FEB 10  41:08:00:00      -1   -1.0      -1   99.0      194.2   -5.4   15.2  146.4   -6.6   174.8
 18 FEB 10  41:09:00:00      -1   -1.0      -1   99.0      194.2   -5.3   15.2  146.4   -6.6   174.3
 18 FEB 10  41:10:00:00      -1   -1.0      -1   99.0      194.2   -5.1   15.2  146.4   -6.6   173.7
 18 FEB 10  41:11:00:00      -1   -1.0      -1   99.0      194.2   -4.9   15.2  146.4   -6.6   173.2
 18 FEB 10  41:12:00:00     322    6.4      22   -1.6      194.2   -4.8   15.2  146.4   -6.6   172.6
 18 FEB 10  41:13:00:00     304    7.5      19   -1.3      194.2   -4.6   15.2  146.4   -6.6   172.1
 18 FEB 10  41:14:00:00     320    4.0      22   -0.6      194.2   -4.4   15.2  146.4   -6.6   171.5
 18 FEB 10  41:15:00:00     316    4.2      21    0.3      194.2   -4.3   15.2  146.4   -6.6   171.0
 18 FEB 10  41:16:00:00     301    4.1      20    0.3      194.2   -4.1   15.2  146.4   -6.6   170.5
 18 FEB 10  41:17:00:00      -1   -1.0      -1   99.0      194.2   -3.9   15.2  146.4   -6.6   169.9
 18 FEB 10  41:18:00:00     355    3.0      33    4.8      194.3   -3.7   15.2  146.4   -6.6   169.3
 18 FEB 10  41:19:00:00     350    3.4      31    4.8      194.3   -3.6   15.2  146.4   -6.6   168.8
 18 FEB 10  41:20:00:00     344    2.1      31    2.5      194.3   -3.4   15.2  146.4   -6.6   168.2
 18 FEB 10  41:21:00:00     355    1.5      36    2.4      194.3   -3.2   15.2  146.4   -6.6   167.7
 18 FEB 10  41:22:00:00     325    4.2      28    2.9      194.3   -3.1   15.2  146.4   -6.6   167.1
 18 FEB 10  41:23:00:00      -1   -1.0      -1   99.0      194.3   -2.9   15.2  146.4   -6.6   166.6
 18 FEB 11  42:00:00:00      -1   -1.0      -1   99.0      194.3   -2.7   15.2  146.4   -6.6   166.0
 18 FEB 11  42:01:00:00      -1   -1.0      -1   99.0      194.3   -2.6   15.2  146.4   -6.6   165.5
 18 FEB 11  42:02:00:00      -1   -1.0      -1   99.0      194.3   -2.4   15.2  146.4   -6.6   165.0
 18 FEB 11  42:03:00:00      -1   -1.0      -1   99.0      194.3   -2.2   15.2  146.4   -6.6   164.4
 18 FEB 11  42:04:00:00     319    3.2      23    0.8      194.3   -2.1   15.2  146.4   -6.6   163.9
 18 FEB 11  42:05:00:00     317    3.3      22    1.0      194.3   -1.9   15.2  146.4   -6.6   163.3
 18 FEB 11  42:06:00:00     308    2.5      21    0.4      194.3   -1.7   15.2  146.4   -6.6   162.7
 18 FEB 11  42:07:00:00     303    2.1      20    0.0      194.3   -1.5   15.2  146.4   -6.6   162.2
 18 FEB 11  42:08:00:00      -1   -1.0      -1   99.0      194.3   -1.4   15.2  146.4   -6.6   161.6
 18 FEB 11  42:09:00:00     311    2.0      21    1.5      194.4   -1.2   15.2  146.4   -6.6   161.1